Airfield :
LOGIN :

Register | Disclaimer

   EN    FR    IT 

 










Legend :    VFR   Marginal VFR   IFR   Intensive IFR   Very Intensive IFR
Visi :
Ceiling :
>= 8 km
>= 3000ft
5 to 8 km
1000 to 3000 ft
1500m to 5 km
500 to 1000 ft
800 to 1500m
200 to 500 ft
< 800m
< 200 ft
Symbols :   Thunderstorms  Fog  Heavy snow  Heavy precipitations  Wind > 20 kt
SIGMETs :     Misc.  Thunderstorms  Icing  Turbulence  Mountain Waves  Volcanic Ashes






- Airport Elevation : 20 ft
- IATA code : LSI


EGPB - Sumburgh

CURRENT METAR :
  • 280950Z 16010KT 9000 -RA FEW011 SCT016 BKN024 03/01 Q0998 TEMPO BKN012

EXPIRED METARs :
  • 280920Z 10009KT 9999 VCSH FEW026 BKN040 05/00 Q0998
  • 280850Z 09006KT 9999 FEW025 04/00 Q0998
  • 280820Z 08004KT 9999 FEW025 03/00 Q0999
  • 280750Z 05002KT 9999 FEW027 02/M00 Q0999 NOSIG
  • 280720Z 00000KT 9999 FEW027 02/M01 Q0999

TAF TAF EGPB
Valid from the 28 at 09:00 until the 28 at 18:00 UTC


280757Z 2809/2818 10008KT 9999 SCT020
PROB40
TEMPO 2811/2818 13018G28KT 5000 RA SHRA BKN008



MET'MAP, your aeronautical weather chart ! - Copyright ORBIFLY December 2007 - Disclaimer

ORBIFLY MET'MAP TEAM :

Programming & Development : Alexandra Zaïnal
Concept & original design : Baudouin d'Aumeries
Assistance for programming : Marc-Olivier Méhu
Technical & hardware support : Manuel Goepfert

Contact : metmap@orbifly.com




SOURCES & CREDITS :

   NOAA